createdAt,value
2023-05-06T00:01:02.705Z,14.29
2023-05-06T00:03:37.352Z,14.27
2023-05-06T00:06:12.374Z,14.24
2023-05-06T00:08:45.426Z,14.21
2023-05-06T00:11:17.717Z,14.22
2023-05-06T00:13:49.876Z,14.17
2023-05-06T00:16:25.776Z,14.12
2023-05-06T00:18:57.966Z,14.07
2023-05-06T00:21:30.585Z,14.08
2023-05-06T00:24:07.527Z,14.06
2023-05-06T00:26:42.442Z,14.12
2023-05-06T00:29:17.492Z,14.10
2023-05-06T00:31:49.737Z,14.16
2023-05-06T00:34:21.947Z,14.11
2023-05-06T00:36:54.345Z,14.20
2023-05-06T00:39:27.005Z,14.24
2023-05-06T00:42:02.711Z,14.26
2023-05-06T00:44:34.963Z,14.33
2023-05-06T00:47:11.104Z,14.33
2023-05-06T00:49:46.048Z,14.35
2023-05-06T00:52:20.287Z,14.36
2023-05-06T00:54:52.931Z,14.36
2023-05-06T00:57:25.386Z,14.34
2023-05-06T00:59:57.637Z,14.35
2023-05-06T01:02:43.314Z,14.25
2023-05-06T01:05:22.525Z,14.22
2023-05-06T01:08:27.458Z,14.17
2023-05-06T01:11:08.265Z,14.21
2023-05-06T01:13:59.227Z,14.18
2023-05-06T01:16:36.681Z,14.20
2023-05-06T01:19:25.908Z,14.16
2023-05-06T01:22:01.637Z,14.22
2023-05-06T01:24:44.730Z,14.23
2023-05-06T01:27:17.081Z,14.25
2023-05-06T01:29:50.123Z,14.31
2023-05-06T01:32:47.167Z,14.26
2023-05-06T01:35:50.799Z,14.24
2023-05-06T01:38:28.184Z,14.29
2023-05-06T01:41:02.181Z,14.29
2023-05-06T01:43:44.920Z,14.20
2023-05-06T01:46:22.282Z,14.23
2023-05-06T01:48:56.952Z,14.22
2023-05-06T01:51:35.354Z,14.23
2023-05-06T01:54:07.771Z,14.26
2023-05-06T01:56:40.131Z,14.28
2023-05-06T01:59:12.604Z,14.23
2023-05-06T02:01:45.271Z,14.21
2023-05-06T02:04:17.856Z,14.11
2023-05-06T02:06:52.921Z,14.09
2023-05-06T02:09:25.256Z,14.14
2023-05-06T02:11:57.626Z,14.05
2023-05-06T02:14:29.711Z,14.03
2023-05-06T02:17:05.985Z,14.04
2023-05-06T02:19:38.230Z,14.01
2023-05-06T02:22:12.219Z,14.02
2023-05-06T02:24:44.381Z,14.00
2023-05-06T02:27:16.740Z,13.98
2023-05-06T02:29:49.009Z,13.87
2023-05-06T02:32:21.446Z,13.85
2023-05-06T02:34:53.914Z,13.86
2023-05-06T02:37:26.196Z,13.78
2023-05-06T02:39:58.369Z,13.77
2023-05-06T02:42:30.941Z,13.76
2023-05-06T02:45:06.454Z,13.73
2023-05-06T02:47:38.650Z,13.65
2023-05-06T02:50:11.422Z,13.62
2023-05-06T02:52:47.539Z,13.59
2023-05-06T02:55:20.185Z,13.58
2023-05-06T02:57:52.305Z,13.62
2023-05-06T03:00:24.566Z,13.52
2023-05-06T03:02:56.882Z,13.55
2023-05-06T03:05:31.764Z,13.51
2023-05-06T03:08:04.044Z,13.47
2023-05-06T03:10:39.400Z,13.45
2023-05-06T03:13:15.072Z,13.37
2023-05-06T03:15:54.871Z,13.31
2023-05-06T03:18:27.058Z,13.33
2023-05-06T03:20:59.338Z,13.28
2023-05-06T03:23:31.613Z,13.25
2023-05-06T03:26:03.884Z,13.16
2023-05-06T03:28:36.082Z,13.08
2023-05-06T03:31:08.419Z,13.02
2023-05-06T03:33:41.313Z,12.99
2023-05-06T03:36:14.327Z,12.98
2023-05-06T03:38:46.840Z,12.99
2023-05-06T03:41:19.145Z,12.98
2023-05-06T03:43:55.853Z,12.99
2023-05-06T03:46:28.138Z,13.00
2023-05-06T03:49:03.004Z,12.99
2023-05-06T03:51:35.822Z,13.01
2023-05-06T03:54:08.560Z,13.05
2023-05-06T03:56:41.233Z,12.98
2023-05-06T03:59:13.428Z,12.95
2023-05-06T04:01:45.975Z,12.95
2023-05-06T04:04:18.372Z,13.01
2023-05-06T04:06:51.161Z,13.02
2023-05-06T04:09:24.195Z,13.04
2023-05-06T04:11:56.504Z,13.08
2023-05-06T04:14:28.610Z,13.10
2023-05-06T04:17:00.996Z,13.00
2023-05-06T04:19:35.895Z,12.99
2023-05-06T04:22:08.077Z,13.04
2023-05-06T04:24:42.031Z,13.06
2023-05-06T04:27:17.318Z,13.10
2023-05-06T04:29:49.486Z,13.12
2023-05-06T04:32:21.800Z,13.16
2023-05-06T04:34:54.388Z,13.02
2023-05-06T04:37:28.539Z,13.04
2023-05-06T04:40:02.884Z,13.08
2023-05-06T04:42:35.133Z,13.07
2023-05-06T04:45:08.334Z,13.08
2023-05-06T04:47:41.080Z,13.04
2023-05-06T04:50:13.779Z,13.07
2023-05-06T04:52:46.057Z,13.11
2023-05-06T04:55:18.237Z,13.06
2023-05-06T04:57:50.362Z,13.11
2023-05-06T05:00:22.866Z,13.11
2023-05-06T05:02:55.116Z,13.11
2023-05-06T05:05:32.352Z,13.13
2023-05-06T05:08:04.684Z,13.13
2023-05-06T05:10:36.844Z,13.19
2023-05-06T05:13:14.601Z,13.23
2023-05-06T05:15:46.848Z,13.27
2023-05-06T05:18:21.207Z,13.23
2023-05-06T05:20:56.409Z,13.26
2023-05-06T05:23:28.501Z,13.26
2023-05-06T05:26:02.126Z,13.22
2023-05-06T05:28:34.328Z,13.10
2023-05-06T05:31:08.341Z,13.19
2023-05-06T05:33:41.985Z,13.23
2023-05-06T05:36:17.385Z,13.33
2023-05-06T05:38:50.487Z,13.39
2023-05-06T05:41:22.683Z,13.47
2023-05-06T05:43:54.816Z,13.54
2023-05-06T05:46:27.660Z,13.59
2023-05-06T05:48:59.785Z,13.43
2023-05-06T05:51:32.047Z,13.47
2023-05-06T05:54:04.316Z,13.46
2023-05-06T05:56:36.488Z,13.54
2023-05-06T05:59:09.030Z,13.66
2023-05-06T06:01:41.237Z,13.78
2023-05-06T06:04:13.426Z,13.75
2023-05-06T06:06:47.021Z,13.79
2023-05-06T06:09:19.312Z,13.90
2023-05-06T06:11:51.894Z,13.97
2023-05-06T06:14:24.048Z,14.07
2023-05-06T06:16:56.406Z,13.98
2023-05-06T06:19:28.559Z,13.99
2023-05-06T06:22:00.984Z,13.98
2023-05-06T06:24:36.436Z,13.83
2023-05-06T06:27:08.664Z,13.80
2023-05-06T06:29:40.959Z,13.98
2023-05-06T06:32:13.243Z,13.72
2023-05-06T06:34:45.653Z,13.63
2023-05-06T06:37:17.931Z,13.77
2023-05-06T06:39:50.064Z,13.75
2023-05-06T06:42:22.170Z,13.69
2023-05-06T06:44:54.231Z,13.77
2023-05-06T06:47:26.526Z,13.93
2023-05-06T06:49:58.647Z,14.09
2023-05-06T06:52:30.851Z,14.10
2023-05-06T06:55:03.565Z,14.19
2023-05-06T06:57:38.024Z,14.23
2023-05-06T07:00:11.037Z,14.21
2023-05-06T07:02:43.193Z,14.27
2023-05-06T07:05:15.628Z,14.36
2023-05-06T07:07:47.763Z,14.40
2023-05-06T07:10:20.075Z,14.37
2023-05-06T07:12:52.229Z,14.43
2023-05-06T07:15:24.989Z,14.39
2023-05-06T07:17:57.150Z,14.38
2023-05-06T07:20:29.294Z,14.39
2023-05-06T07:23:01.502Z,14.35
2023-05-06T07:25:33.666Z,14.39
2023-05-06T07:28:06.158Z,14.39
2023-05-06T07:30:39.416Z,14.36
2023-05-06T07:33:12.725Z,14.27
2023-05-06T07:35:50.140Z,14.19
2023-05-06T07:38:38.697Z,14.55
2023-05-06T07:41:27.129Z,14.58
2023-05-06T07:43:59.221Z,14.67
2023-05-06T07:46:32.329Z,14.78
2023-05-06T07:49:05.483Z,14.90
2023-05-06T07:51:39.877Z,15.06
2023-05-06T07:54:14.090Z,15.25
2023-05-06T07:57:05.258Z,15.26
2023-05-06T07:59:37.820Z,15.50
2023-05-06T08:02:10.823Z,15.46
2023-05-06T08:04:43.441Z,15.42
2023-05-06T08:07:16.916Z,15.47
2023-05-06T08:09:49.414Z,15.48
2023-05-06T08:12:21.617Z,15.44
2023-05-06T08:14:55.092Z,15.47
2023-05-06T08:17:27.419Z,15.67
2023-05-06T08:19:59.666Z,15.61
2023-05-06T08:22:34.545Z,15.72
2023-05-06T08:25:07.633Z,15.75
2023-05-06T08:27:40.721Z,15.75
2023-05-06T08:30:13.961Z,15.63
2023-05-06T08:32:49.202Z,15.59
2023-05-06T08:35:21.667Z,15.38
2023-05-06T08:37:53.780Z,15.31
2023-05-06T08:40:28.165Z,15.15
2023-05-06T08:43:01.736Z,15.22
2023-05-06T08:45:34.275Z,15.28
2023-05-06T08:48:06.998Z,15.45
2023-05-06T08:50:44.307Z,15.60
2023-05-06T08:53:17.250Z,15.72
2023-05-06T08:55:51.984Z,15.87
2023-05-06T08:58:26.571Z,15.83
2023-05-06T09:01:00.524Z,15.94
2023-05-06T09:03:32.782Z,16.21
2023-05-06T09:06:05.894Z,16.47
2023-05-06T09:08:38.555Z,16.58
2023-05-06T09:15:11.590Z,16.60
2023-05-06T09:17:44.879Z,16.86
2023-05-06T09:20:23.929Z,17.16
2023-05-06T09:22:56.145Z,17.76
2023-05-06T09:25:29.847Z,18.32
2023-05-06T09:28:08.928Z,19.02
2023-05-06T09:30:43.657Z,19.57
2023-05-06T09:33:16.495Z,19.72
2023-05-06T09:35:50.206Z,19.58
2023-05-06T09:38:22.621Z,19.16
2023-05-06T09:40:54.992Z,18.69
2023-05-06T09:43:27.229Z,18.33
2023-05-06T09:46:02.968Z,18.20
2023-05-06T09:48:36.780Z,18.01
2023-05-06T09:51:12.269Z,18.48
2023-05-06T09:53:45.721Z,19.48
2023-05-06T09:56:18.108Z,20.49
2023-05-06T09:58:52.873Z,21.07
2023-05-06T10:01:35.992Z,21.45
2023-05-06T10:04:10.530Z,21.70
2023-05-06T10:06:44.728Z,21.63
2023-05-06T10:09:17.857Z,21.10
2023-05-06T10:11:52.479Z,20.55
2023-05-06T10:14:25.652Z,20.35
2023-05-06T10:16:58.540Z,20.14
2023-05-06T10:19:32.811Z,19.79
2023-05-06T10:22:30.504Z,20.37
2023-05-06T10:25:38.394Z,21.36
2023-05-06T10:28:14.695Z,21.67
2023-05-06T10:30:59.810Z,21.52
2023-05-06T10:33:32.517Z,21.23
2023-05-06T10:36:25.595Z,20.89
2023-05-06T10:39:03.744Z,20.88
2023-05-06T10:41:38.760Z,21.16
2023-05-06T10:44:14.359Z,20.94
2023-05-06T10:47:13.064Z,20.89
2023-05-06T10:50:24.714Z,20.97
2023-05-06T10:52:59.533Z,21.70
2023-05-06T10:55:34.828Z,22.25
2023-05-06T10:58:20.287Z,22.43
2023-05-06T11:00:59.773Z,23.29
2023-05-06T11:11:00.802Z,26.29
2023-05-06T11:13:36.176Z,26.75
2023-05-06T11:20:27.827Z,25.32
2023-05-06T11:23:42.997Z,25.48
2023-05-06T11:26:32.196Z,24.54
2023-05-06T11:38:02.253Z,22.61
2023-05-06T11:40:51.224Z,21.90
2023-05-06T11:43:24.116Z,21.68
2023-05-06T11:46:05.165Z,21.09
2023-05-06T11:48:44.149Z,20.71
2023-05-06T11:51:27.042Z,20.31
2023-05-06T11:57:53.782Z,19.81
2023-05-06T12:00:27.056Z,19.88
2023-05-06T12:03:06.805Z,20.01
2023-05-06T12:05:42.557Z,20.15
2023-05-06T12:08:26.896Z,20.29
2023-05-06T12:11:09.701Z,20.40
2023-05-06T12:13:46.637Z,20.43
2023-05-06T12:16:33.059Z,21.59
2023-05-06T12:19:34.478Z,24.37
2023-05-06T12:40:06.016Z,26.13
2023-05-06T12:50:46.134Z,22.99
2023-05-06T13:08:39.773Z,22.45
2023-05-06T13:12:47.353Z,21.84
2023-05-06T13:18:27.380Z,21.64
2023-05-06T13:21:46.545Z,22.06
2023-05-06T13:24:48.062Z,23.48
2023-05-06T13:27:47.748Z,24.33
2023-05-06T13:36:29.852Z,23.78
2023-05-06T13:39:22.255Z,24.18
2023-05-06T13:42:19.990Z,24.78
2023-05-06T13:45:17.066Z,24.70
2023-05-06T13:51:48.647Z,23.94
2023-05-06T13:58:25.556Z,24.69
2023-05-06T14:01:21.437Z,24.67
2023-05-06T14:07:09.928Z,22.40
2023-05-06T14:10:19.556Z,21.05
2023-05-06T14:13:19.194Z,20.47
2023-05-06T14:16:07.343Z,20.15
2023-05-06T14:18:52.029Z,20.18
2023-05-06T14:24:47.803Z,19.97
2023-05-06T14:28:40.351Z,19.91
2023-05-06T14:31:12.548Z,20.04
2023-05-06T14:33:44.967Z,20.03
2023-05-06T14:36:20.757Z,20.28
2023-05-06T14:38:52.898Z,20.70
2023-05-06T14:41:25.267Z,20.98
2023-05-06T14:44:00.457Z,20.98
2023-05-06T14:46:32.688Z,20.91
2023-05-06T14:49:04.887Z,20.72
2023-05-06T14:51:37.157Z,20.73
2023-05-06T14:54:09.315Z,20.89
2023-05-06T14:56:41.943Z,20.67
2023-05-06T14:59:14.278Z,20.55
2023-05-06T15:01:46.548Z,20.62
2023-05-06T15:04:18.785Z,20.56
2023-05-06T15:06:51.018Z,20.18
2023-05-06T15:09:23.276Z,20.36
2023-05-06T15:11:55.490Z,20.34
2023-05-06T15:14:27.647Z,20.15
2023-05-06T15:16:59.845Z,20.05
2023-05-06T15:19:33.727Z,20.19
2023-05-06T15:22:05.981Z,20.12
2023-05-06T15:24:38.137Z,20.23
2023-05-06T15:27:10.433Z,20.14
2023-05-06T15:29:42.578Z,20.12
2023-05-06T15:32:15.157Z,20.05
2023-05-06T15:34:47.336Z,19.86
2023-05-06T15:37:19.653Z,19.84
2023-05-06T15:39:51.925Z,19.63
2023-05-06T15:42:24.056Z,19.47
2023-05-06T15:44:56.184Z,19.42
2023-05-06T15:47:28.275Z,19.38
2023-05-06T15:50:01.551Z,19.27
2023-05-06T15:52:33.897Z,19.37
2023-05-06T15:55:06.669Z,19.55
2023-05-06T15:57:39.079Z,19.53
2023-05-06T16:00:12.511Z,19.61
2023-05-06T16:02:45.242Z,19.56
2023-05-06T16:05:17.433Z,19.44
2023-05-06T16:07:49.858Z,19.20
2023-05-06T16:10:22.190Z,19.08
2023-05-06T16:12:54.550Z,18.92
2023-05-06T16:15:26.794Z,18.73
2023-05-06T16:17:58.926Z,18.32
2023-05-06T16:20:32.777Z,18.43
2023-05-06T16:23:05.548Z,18.44
2023-05-06T16:25:38.547Z,18.38
2023-05-06T16:28:10.889Z,18.09
2023-05-06T16:30:45.048Z,17.86
2023-05-06T16:33:17.153Z,17.51
2023-05-06T16:35:49.248Z,17.67
2023-05-06T16:38:21.458Z,17.79
2023-05-06T16:40:53.702Z,17.90
2023-05-06T16:43:25.894Z,17.97
2023-05-06T16:45:58.072Z,17.96
2023-05-06T16:48:30.248Z,17.90
2023-05-06T16:51:02.692Z,17.75
2023-05-06T16:53:34.780Z,17.74
2023-05-06T16:56:07.629Z,17.77
2023-05-06T16:58:39.974Z,17.71
2023-05-06T17:01:12.285Z,17.60
2023-05-06T17:03:44.490Z,17.47
2023-05-06T17:06:16.594Z,17.52
2023-05-06T17:08:48.830Z,17.52
2023-05-06T17:11:21.013Z,17.29
2023-05-06T17:13:55.051Z,17.25
2023-05-06T17:16:28.839Z,17.19
2023-05-06T17:19:01.641Z,17.19
2023-05-06T17:21:35.629Z,17.12
2023-05-06T17:24:13.089Z,17.10
2023-05-06T17:26:45.444Z,17.01
2023-05-06T17:29:17.845Z,17.03
2023-05-06T17:31:50.394Z,16.97
2023-05-06T17:34:22.827Z,16.83
2023-05-06T17:36:55.114Z,16.76
2023-05-06T17:39:27.559Z,16.75
2023-05-06T17:42:02.061Z,16.60
2023-05-06T17:44:35.560Z,16.56
2023-05-06T17:47:08.026Z,16.46
2023-05-06T17:49:40.264Z,16.38
2023-05-06T17:52:12.599Z,16.29
2023-05-06T17:54:45.384Z,16.31
2023-05-06T17:57:18.288Z,16.32
2023-05-06T17:59:50.505Z,16.30
2023-05-06T18:02:22.899Z,16.19
2023-05-06T18:04:55.088Z,16.10
2023-05-06T18:07:27.296Z,16.10
2023-05-06T18:09:59.440Z,16.05
2023-05-06T18:12:32.172Z,16.02
2023-05-06T18:15:06.106Z,15.80
2023-05-06T18:17:38.476Z,15.73
2023-05-06T18:20:11.692Z,15.75
2023-05-06T18:22:44.104Z,15.77
2023-05-06T18:25:16.596Z,15.68
2023-05-06T18:27:49.669Z,15.70
2023-05-06T18:30:22.102Z,15.67
2023-05-06T18:32:56.501Z,15.60
2023-05-06T18:35:30.360Z,15.60
2023-05-06T18:38:03.168Z,15.57
2023-05-06T18:40:36.772Z,15.39
2023-05-06T18:43:08.967Z,15.34
2023-05-06T18:45:42.792Z,15.27
2023-05-06T18:48:17.903Z,15.08
2023-05-06T18:50:51.179Z,15.05
2023-05-06T18:53:23.385Z,14.85
2023-05-06T18:55:55.475Z,14.61
2023-05-06T18:58:27.763Z,14.53
2023-05-06T19:01:00.429Z,14.46
2023-05-06T19:03:35.163Z,14.44
2023-05-06T19:06:10.798Z,14.43
2023-05-06T19:08:43.159Z,14.34
2023-05-06T19:11:18.299Z,14.29
2023-05-06T19:13:52.337Z,14.08
2023-05-06T19:16:24.512Z,14.01
2023-05-06T19:18:56.693Z,14.01
2023-05-06T19:21:29.124Z,13.96
2023-05-06T19:24:01.846Z,13.96
2023-05-06T19:26:33.979Z,13.97
2023-05-06T19:29:06.396Z,13.80
2023-05-06T19:31:38.774Z,13.83
2023-05-06T19:34:10.952Z,13.81
2023-05-06T19:36:43.712Z,13.78
2023-05-06T19:39:16.589Z,13.73
2023-05-06T19:41:48.835Z,13.70
2023-05-06T19:44:21.058Z,13.77
2023-05-06T19:46:56.633Z,13.73
2023-05-06T19:49:30.726Z,13.72
2023-05-06T19:52:02.814Z,13.71
2023-05-06T19:54:34.942Z,13.73
2023-05-06T19:57:07.205Z,13.75
2023-05-06T19:59:39.317Z,13.74
2023-05-06T20:02:13.606Z,13.73
2023-05-06T20:04:46.336Z,13.74
2023-05-06T20:07:20.553Z,13.67
2023-05-06T20:09:55.719Z,13.69
2023-05-06T20:12:27.931Z,13.63
2023-05-06T20:15:00.133Z,13.64
2023-05-06T20:17:32.291Z,13.68
2023-05-06T20:20:09.908Z,13.69
2023-05-06T20:22:42.146Z,13.84
2023-05-06T20:25:17.682Z,13.75
2023-05-06T20:27:49.868Z,13.71
2023-05-06T20:30:22.234Z,13.72
2023-05-06T20:32:54.765Z,13.70
2023-05-06T20:35:27.537Z,13.75
2023-05-06T20:37:59.928Z,13.64
2023-05-06T20:40:33.108Z,13.70
2023-05-06T20:43:05.232Z,13.67
2023-05-06T20:45:40.738Z,13.69
2023-05-06T20:48:14.883Z,13.67
2023-05-06T20:50:47.556Z,13.63
2023-05-06T20:53:20.360Z,13.59
2023-05-06T20:55:52.582Z,13.63
2023-05-06T20:58:24.755Z,13.56
2023-05-06T21:00:57.849Z,13.62
2023-05-06T21:03:30.672Z,13.52
2023-05-06T21:06:03.284Z,13.49
2023-05-06T21:08:35.514Z,13.43
2023-05-06T21:11:07.626Z,13.45
2023-05-06T21:13:40.995Z,13.49
2023-05-06T21:16:13.145Z,13.42
2023-05-06T21:18:45.298Z,13.46
2023-05-06T21:21:17.494Z,13.40
2023-05-06T21:23:49.557Z,13.42
2023-05-06T21:26:21.920Z,13.51
2023-05-06T21:28:53.967Z,13.43
2023-05-06T21:31:27.016Z,13.36
2023-05-06T21:33:59.569Z,13.43
2023-05-06T21:36:31.705Z,13.47
2023-05-06T21:39:10.966Z,13.50
2023-05-06T21:41:43.862Z,13.52
2023-05-06T21:44:16.344Z,13.54
2023-05-06T21:46:48.627Z,13.44
2023-05-06T21:49:22.400Z,13.45
2023-05-06T21:51:54.575Z,13.49
2023-05-06T21:54:26.647Z,13.56
2023-05-06T21:56:58.780Z,13.50
2023-05-06T21:59:30.875Z,13.48
2023-05-06T22:02:04.303Z,13.43
2023-05-06T22:04:36.634Z,13.38
2023-05-06T22:07:08.973Z,13.32
2023-05-06T22:09:41.051Z,13.28
2023-05-06T22:12:13.506Z,13.18
2023-05-06T22:14:46.185Z,13.14
2023-05-06T22:17:18.561Z,13.11
2023-05-06T22:19:51.867Z,13.09
2023-05-06T22:22:24.976Z,13.01
2023-05-06T22:24:57.031Z,13.08
2023-05-06T22:27:29.440Z,12.94
2023-05-06T22:30:01.898Z,12.88
2023-05-06T22:32:34.002Z,12.94
2023-05-06T22:35:07.111Z,13.04
2023-05-06T22:37:40.402Z,13.01
2023-05-06T22:40:13.178Z,12.99
2023-05-06T22:42:45.733Z,13.00
2023-05-06T22:45:17.918Z,12.93
2023-05-06T22:47:50.177Z,12.94
2023-05-06T22:50:22.583Z,12.98
2023-05-06T22:52:54.847Z,12.96
2023-05-06T22:55:27.045Z,12.97
2023-05-06T22:57:59.286Z,12.79
2023-05-06T23:00:31.442Z,12.85
2023-05-06T23:03:03.865Z,12.92
2023-05-06T23:05:36.079Z,12.86
2023-05-06T23:08:08.550Z,12.80
2023-05-06T23:10:40.942Z,12.80
2023-05-06T23:13:13.370Z,12.80
2023-05-06T23:15:45.585Z,12.85
2023-05-06T23:18:18.030Z,12.86
2023-05-06T23:20:50.127Z,12.82
2023-05-06T23:23:22.284Z,12.69
2023-05-06T23:25:54.410Z,12.64
2023-05-06T23:28:26.610Z,12.56
2023-05-06T23:30:58.812Z,12.65
2023-05-06T23:33:31.061Z,12.57
2023-05-06T23:36:03.526Z,12.54
2023-05-06T23:38:35.914Z,12.40
2023-05-06T23:41:08.042Z,12.30
2023-05-06T23:43:41.162Z,12.20
2023-05-06T23:46:13.379Z,12.18
2023-05-06T23:49:17.695Z,12.16
2023-05-06T23:51:49.773Z,12.25
2023-05-06T23:54:21.898Z,12.22
2023-05-06T23:56:54.126Z,12.31
2023-05-06T23:59:26.219Z,12.35
